sensor_id;sensor_type;location;lat;lon;timestamp;P1;durP1;ratioP1;P2;durP2;ratioP2
26908;SDS011;14477;51.038;4.588;2023-01-04T00:01:06;2.35;;;1.20;;
26908;SDS011;14477;51.038;4.588;2023-01-04T00:03:35;3.20;;;1.23;;
26908;SDS011;14477;51.038;4.588;2023-01-04T00:06:03;2.87;;;1.10;;
26908;SDS011;14477;51.038;4.588;2023-01-04T00:08:30;2.03;;;1.00;;
26908;SDS011;14477;51.038;4.588;2023-01-04T00:11:16;1.98;;;1.00;;
26908;SDS011;14477;51.038;4.588;2023-01-04T00:13:44;3.17;;;1.00;;
26908;SDS011;14477;51.038;4.588;2023-01-04T00:16:11;1.83;;;0.88;;
26908;SDS011;14477;51.038;4.588;2023-01-04T00:18:39;2.40;;;1.00;;
26908;SDS011;14477;51.038;4.588;2023-01-04T00:21:09;3.53;;;0.90;;
26908;SDS011;14477;51.038;4.588;2023-01-04T00:23:36;3.28;;;1.30;;
26908;SDS011;14477;51.038;4.588;2023-01-04T00:26:10;2.63;;;1.10;;
26908;SDS011;14477;51.038;4.588;2023-01-04T00:28:37;2.83;;;0.90;;
26908;SDS011;14477;51.038;4.588;2023-01-04T00:31:04;2.13;;;0.80;;
26908;SDS011;14477;51.038;4.588;2023-01-04T00:33:31;1.15;;;0.80;;
26908;SDS011;14477;51.038;4.588;2023-01-04T00:36:00;1.40;;;0.85;;
26908;SDS011;14477;51.038;4.588;2023-01-04T00:38:28;1.30;;;0.93;;
26908;SDS011;14477;51.038;4.588;2023-01-04T00:40:54;1.10;;;0.88;;
26908;SDS011;14477;51.038;4.588;2023-01-04T00:43:20;2.00;;;0.90;;
26908;SDS011;14477;51.038;4.588;2023-01-04T00:45:45;2.22;;;1.00;;
26908;SDS011;14477;51.038;4.588;2023-01-04T00:48:11;1.73;;;0.93;;
26908;SDS011;14477;51.038;4.588;2023-01-04T00:50:37;1.10;;;0.80;;
26908;SDS011;14477;51.038;4.588;2023-01-04T00:53:03;1.73;;;0.73;;
26908;SDS011;14477;51.038;4.588;2023-01-04T00:55:29;2.05;;;0.80;;
26908;SDS011;14477;51.038;4.588;2023-01-04T00:57:55;1.38;;;0.80;;
26908;SDS011;14477;51.038;4.588;2023-01-04T01:00:22;1.47;;;0.90;;
26908;SDS011;14477;51.038;4.588;2023-01-04T01:02:48;1.15;;;1.00;;
26908;SDS011;14477;51.038;4.588;2023-01-04T01:05:13;1.85;;;0.90;;
26908;SDS011;14477;51.038;4.588;2023-01-04T01:07:39;1.90;;;1.10;;
26908;SDS011;14477;51.038;4.588;2023-01-04T01:10:05;1.35;;;1.00;;
26908;SDS011;14477;51.038;4.588;2023-01-04T01:12:31;2.13;;;0.80;;
26908;SDS011;14477;51.038;4.588;2023-01-04T01:14:57;0.95;;;0.70;;
26908;SDS011;14477;51.038;4.588;2023-01-04T01:17:22;2.45;;;0.80;;
26908;SDS011;14477;51.038;4.588;2023-01-04T01:19:48;1.60;;;1.00;;
26908;SDS011;14477;51.038;4.588;2023-01-04T01:22:14;1.60;;;0.80;;
26908;SDS011;14477;51.038;4.588;2023-01-04T01:24:39;1.67;;;0.80;;
26908;SDS011;14477;51.038;4.588;2023-01-04T01:27:08;1.20;;;0.90;;
26908;SDS011;14477;51.038;4.588;2023-01-04T01:29:34;1.58;;;0.73;;
26908;SDS011;14477;51.038;4.588;2023-01-04T01:32:00;1.33;;;0.90;;
26908;SDS011;14477;51.038;4.588;2023-01-04T01:34:26;1.38;;;0.70;;
26908;SDS011;14477;51.038;4.588;2023-01-04T01:36:52;1.70;;;1.00;;
26908;SDS011;14477;51.038;4.588;2023-01-04T01:39:17;1.33;;;0.73;;
26908;SDS011;14477;51.038;4.588;2023-01-04T01:41:43;1.13;;;0.90;;
26908;SDS011;14477;51.038;4.588;2023-01-04T01:47:26;1.15;;;0.90;;
26908;SDS011;14477;51.038;4.588;2023-01-04T01:49:58;1.30;;;1.00;;
26908;SDS011;14477;51.038;4.588;2023-01-04T01:52:28;0.80;;;0.80;;
26908;SDS011;14477;51.038;4.588;2023-01-04T01:54:59;1.33;;;0.90;;
26908;SDS011;14477;51.038;4.588;2023-01-04T01:57:30;2.00;;;0.93;;
26908;SDS011;14477;51.038;4.588;2023-01-04T02:00:00;1.80;;;0.85;;
26908;SDS011;14477;51.038;4.588;2023-01-04T02:02:28;2.10;;;1.17;;
26908;SDS011;14477;51.038;4.588;2023-01-04T02:04:54;1.20;;;0.90;;
26908;SDS011;14477;51.038;4.588;2023-01-04T02:07:23;1.65;;;1.08;;
26908;SDS011;14477;51.038;4.588;2023-01-04T02:09:51;1.40;;;0.90;;
26908;SDS011;14477;51.038;4.588;2023-01-04T02:12:19;2.00;;;0.90;;
26908;SDS011;14477;51.038;4.588;2023-01-04T02:14:46;1.70;;;1.10;;
26908;SDS011;14477;51.038;4.588;2023-01-04T02:20:03;1.53;;;1.20;;
26908;SDS011;14477;51.038;4.588;2023-01-04T02:39:43;2.72;;;1.23;;
26908;SDS011;14477;51.038;4.588;2023-01-04T02:45:26;1.30;;;0.90;;
26908;SDS011;14477;51.038;4.588;2023-01-04T02:48:00;1.77;;;1.20;;
26908;SDS011;14477;51.038;4.588;2023-01-04T02:50:52;1.30;;;1.00;;
26908;SDS011;14477;51.038;4.588;2023-01-04T02:53:28;2.53;;;1.17;;
26908;SDS011;14477;51.038;4.588;2023-01-04T03:04:05;3.67;;;1.25;;
26908;SDS011;14477;51.038;4.588;2023-01-04T03:07:12;3.35;;;1.40;;
26908;SDS011;14477;51.038;4.588;2023-01-04T03:09:45;2.10;;;1.45;;
26908;SDS011;14477;51.038;4.588;2023-01-04T03:12:20;2.42;;;1.40;;
26908;SDS011;14477;51.038;4.588;2023-01-04T03:14:58;2.73;;;1.50;;
26908;SDS011;14477;51.038;4.588;2023-01-04T03:17:36;3.40;;;1.30;;
26908;SDS011;14477;51.038;4.588;2023-01-04T03:20:07;2.13;;;1.50;;
26908;SDS011;14477;51.038;4.588;2023-01-04T03:25:48;4.18;;;1.20;;
26908;SDS011;14477;51.038;4.588;2023-01-04T03:28:34;3.77;;;1.30;;
26908;SDS011;14477;51.038;4.588;2023-01-04T03:32:03;3.33;;;1.38;;
26908;SDS011;14477;51.038;4.588;2023-01-04T03:34:32;2.40;;;1.20;;
26908;SDS011;14477;51.038;4.588;2023-01-04T03:37:22;2.30;;;1.20;;
26908;SDS011;14477;51.038;4.588;2023-01-04T03:40:14;2.58;;;1.50;;
26908;SDS011;14477;51.038;4.588;2023-01-04T03:43:15;3.57;;;1.30;;
26908;SDS011;14477;51.038;4.588;2023-01-04T03:46:04;2.35;;;1.30;;
26908;SDS011;14477;51.038;4.588;2023-01-04T03:49:20;3.58;;;1.40;;
26908;SDS011;14477;51.038;4.588;2023-01-04T03:51:58;3.55;;;1.27;;
26908;SDS011;14477;51.038;4.588;2023-01-04T03:54:29;2.58;;;1.48;;
26908;SDS011;14477;51.038;4.588;2023-01-04T03:56:58;2.30;;;1.23;;
26908;SDS011;14477;51.038;4.588;2023-01-04T03:59:25;2.25;;;1.20;;
26908;SDS011;14477;51.038;4.588;2023-01-04T04:01:51;2.50;;;1.40;;
26908;SDS011;14477;51.038;4.588;2023-01-04T04:04:17;2.25;;;1.20;;
26908;SDS011;14477;51.038;4.588;2023-01-04T04:07:02;2.03;;;0.90;;
26908;SDS011;14477;51.038;4.588;2023-01-04T04:09:47;3.17;;;1.00;;
26908;SDS011;14477;51.038;4.588;2023-01-04T04:12:12;2.60;;;1.25;;
26908;SDS011;14477;51.038;4.588;2023-01-04T04:14:38;1.97;;;1.30;;
26908;SDS011;14477;51.038;4.588;2023-01-04T04:17:04;2.55;;;1.10;;
26908;SDS011;14477;51.038;4.588;2023-01-04T04:19:30;3.40;;;1.20;;
26908;SDS011;14477;51.038;4.588;2023-01-04T04:21:56;1.52;;;1.10;;
26908;SDS011;14477;51.038;4.588;2023-01-04T04:24:23;2.65;;;1.20;;
26908;SDS011;14477;51.038;4.588;2023-01-04T04:26:50;2.50;;;1.23;;
26908;SDS011;14477;51.038;4.588;2023-01-04T04:29:18;2.10;;;1.17;;
26908;SDS011;14477;51.038;4.588;2023-01-04T04:31:45;2.17;;;1.10;;
26908;SDS011;14477;51.038;4.588;2023-01-04T04:34:10;2.53;;;1.20;;
26908;SDS011;14477;51.038;4.588;2023-01-04T04:36:37;2.40;;;1.23;;
26908;SDS011;14477;51.038;4.588;2023-01-04T04:39:03;2.25;;;1.10;;
26908;SDS011;14477;51.038;4.588;2023-01-04T04:41:30;2.17;;;1.20;;
26908;SDS011;14477;51.038;4.588;2023-01-04T04:44:03;1.90;;;1.10;;
26908;SDS011;14477;51.038;4.588;2023-01-04T04:46:30;2.58;;;1.20;;
26908;SDS011;14477;51.038;4.588;2023-01-04T04:48:56;2.75;;;1.00;;
26908;SDS011;14477;51.038;4.588;2023-01-04T04:51:22;1.10;;;1.00;;
26908;SDS011;14477;51.038;4.588;2023-01-04T04:53:47;3.00;;;1.30;;
26908;SDS011;14477;51.038;4.588;2023-01-04T04:56:13;2.15;;;1.10;;
26908;SDS011;14477;51.038;4.588;2023-01-04T04:58:39;2.57;;;1.20;;
26908;SDS011;14477;51.038;4.588;2023-01-04T05:01:05;2.92;;;1.20;;
26908;SDS011;14477;51.038;4.588;2023-01-04T05:03:33;1.83;;;1.00;;
26908;SDS011;14477;51.038;4.588;2023-01-04T05:05:59;1.85;;;1.10;;
26908;SDS011;14477;51.038;4.588;2023-01-04T05:08:25;2.25;;;0.90;;
26908;SDS011;14477;51.038;4.588;2023-01-04T05:10:51;1.00;;;0.90;;
26908;SDS011;14477;51.038;4.588;2023-01-04T05:13:17;2.35;;;0.93;;
26908;SDS011;14477;51.038;4.588;2023-01-04T05:15:44;1.37;;;0.80;;
26908;SDS011;14477;51.038;4.588;2023-01-04T05:18:15;1.88;;;0.93;;
26908;SDS011;14477;51.038;4.588;2023-01-04T05:20:43;1.77;;;0.93;;
26908;SDS011;14477;51.038;4.588;2023-01-04T05:23:09;1.55;;;0.93;;
26908;SDS011;14477;51.038;4.588;2023-01-04T05:25:37;2.30;;;0.90;;
26908;SDS011;14477;51.038;4.588;2023-01-04T05:28:03;1.70;;;0.80;;
26908;SDS011;14477;51.038;4.588;2023-01-04T05:30:30;2.33;;;1.10;;
26908;SDS011;14477;51.038;4.588;2023-01-04T05:33:15;1.23;;;0.85;;
26908;SDS011;14477;51.038;4.588;2023-01-04T05:35:46;1.38;;;0.80;;
26908;SDS011;14477;51.038;4.588;2023-01-04T05:38:12;1.07;;;0.90;;
26908;SDS011;14477;51.038;4.588;2023-01-04T05:40:38;1.95;;;0.93;;
26908;SDS011;14477;51.038;4.588;2023-01-04T05:43:04;1.40;;;0.90;;
26908;SDS011;14477;51.038;4.588;2023-01-04T05:45:30;1.20;;;0.77;;
26908;SDS011;14477;51.038;4.588;2023-01-04T05:47:55;1.00;;;0.80;;
26908;SDS011;14477;51.038;4.588;2023-01-04T05:50:21;1.70;;;0.75;;
26908;SDS011;14477;51.038;4.588;2023-01-04T05:52:48;1.03;;;0.90;;
26908;SDS011;14477;51.038;4.588;2023-01-04T05:55:14;1.83;;;0.90;;
26908;SDS011;14477;51.038;4.588;2023-01-04T05:57:40;1.73;;;1.20;;
26908;SDS011;14477;51.038;4.588;2023-01-04T06:00:07;2.35;;;0.90;;
26908;SDS011;14477;51.038;4.588;2023-01-04T06:02:34;1.17;;;0.83;;
26908;SDS011;14477;51.038;4.588;2023-01-04T06:05:01;1.30;;;0.73;;
26908;SDS011;14477;51.038;4.588;2023-01-04T06:07:27;1.52;;;0.85;;
26908;SDS011;14477;51.038;4.588;2023-01-04T06:09:54;1.92;;;0.90;;
26908;SDS011;14477;51.038;4.588;2023-01-04T06:12:20;2.40;;;1.00;;
26908;SDS011;14477;51.038;4.588;2023-01-04T06:14:46;1.40;;;0.80;;
26908;SDS011;14477;51.038;4.588;2023-01-04T06:17:12;1.23;;;0.70;;
26908;SDS011;14477;51.038;4.588;2023-01-04T06:19:38;1.00;;;0.80;;
26908;SDS011;14477;51.038;4.588;2023-01-04T06:22:04;1.43;;;0.60;;
26908;SDS011;14477;51.038;4.588;2023-01-04T06:24:30;2.17;;;0.85;;
26908;SDS011;14477;51.038;4.588;2023-01-04T06:26:58;0.60;;;0.60;;
26908;SDS011;14477;51.038;4.588;2023-01-04T06:29:25;0.95;;;0.70;;
26908;SDS011;14477;51.038;4.588;2023-01-04T06:31:50;0.77;;;0.70;;
26908;SDS011;14477;51.038;4.588;2023-01-04T06:34:16;0.88;;;0.60;;
26908;SDS011;14477;51.038;4.588;2023-01-04T06:36:42;1.20;;;0.60;;
26908;SDS011;14477;51.038;4.588;2023-01-04T06:39:08;1.90;;;0.60;;
26908;SDS011;14477;51.038;4.588;2023-01-04T06:41:34;1.52;;;0.70;;
26908;SDS011;14477;51.038;4.588;2023-01-04T06:44:00;0.57;;;0.57;;
26908;SDS011;14477;51.038;4.588;2023-01-04T06:46:26;1.27;;;0.70;;
26908;SDS011;14477;51.038;4.588;2023-01-04T06:48:52;0.60;;;0.60;;
26908;SDS011;14477;51.038;4.588;2023-01-04T06:51:18;1.02;;;0.60;;
26908;SDS011;14477;51.038;4.588;2023-01-04T06:53:45;0.97;;;0.70;;
26908;SDS011;14477;51.038;4.588;2023-01-04T06:56:11;0.80;;;0.65;;
26908;SDS011;14477;51.038;4.588;2023-01-04T06:58:37;2.60;;;0.80;;
26908;SDS011;14477;51.038;4.588;2023-01-04T07:01:02;1.60;;;0.90;;
26908;SDS011;14477;51.038;4.588;2023-01-04T07:03:28;1.52;;;0.75;;
26908;SDS011;14477;51.038;4.588;2023-01-04T07:05:54;1.05;;;0.70;;
26908;SDS011;14477;51.038;4.588;2023-01-04T07:08:20;0.97;;;0.80;;
26908;SDS011;14477;51.038;4.588;2023-01-04T07:10:46;2.35;;;0.80;;
26908;SDS011;14477;51.038;4.588;2023-01-04T07:13:11;1.10;;;0.70;;
26908;SDS011;14477;51.038;4.588;2023-01-04T07:15:37;0.98;;;0.80;;
26908;SDS011;14477;51.038;4.588;2023-01-04T07:18:06;1.15;;;0.80;;
26908;SDS011;14477;51.038;4.588;2023-01-04T07:20:36;1.23;;;0.80;;
26908;SDS011;14477;51.038;4.588;2023-01-04T07:23:02;2.30;;;0.93;;
26908;SDS011;14477;51.038;4.588;2023-01-04T07:25:29;1.48;;;0.88;;
26908;SDS011;14477;51.038;4.588;2023-01-04T07:27:55;1.17;;;0.80;;
26908;SDS011;14477;51.038;4.588;2023-01-04T07:30:21;1.73;;;0.90;;
26908;SDS011;14477;51.038;4.588;2023-01-04T07:32:48;1.00;;;0.80;;
26908;SDS011;14477;51.038;4.588;2023-01-04T07:35:16;3.63;;;1.00;;
26908;SDS011;14477;51.038;4.588;2023-01-04T07:37:41;1.83;;;0.80;;
26908;SDS011;14477;51.038;4.588;2023-01-04T07:40:08;2.70;;;1.00;;
26908;SDS011;14477;51.038;4.588;2023-01-04T07:42:34;2.28;;;0.90;;
26908;SDS011;14477;51.038;4.588;2023-01-04T07:45:01;1.00;;;0.80;;
26908;SDS011;14477;51.038;4.588;2023-01-04T07:47:27;1.83;;;0.93;;
26908;SDS011;14477;51.038;4.588;2023-01-04T07:49:53;1.70;;;0.80;;
26908;SDS011;14477;51.038;4.588;2023-01-04T07:52:19;2.63;;;0.90;;
26908;SDS011;14477;51.038;4.588;2023-01-04T07:54:45;1.65;;;0.80;;
26908;SDS011;14477;51.038;4.588;2023-01-04T07:57:11;1.98;;;0.90;;
26908;SDS011;14477;51.038;4.588;2023-01-04T07:59:37;1.60;;;0.80;;
26908;SDS011;14477;51.038;4.588;2023-01-04T08:02:03;1.30;;;0.70;;
26908;SDS011;14477;51.038;4.588;2023-01-04T08:04:29;2.78;;;1.13;;
26908;SDS011;14477;51.038;4.588;2023-01-04T08:06:55;1.87;;;1.00;;
26908;SDS011;14477;51.038;4.588;2023-01-04T08:09:21;1.55;;;0.70;;
26908;SDS011;14477;51.038;4.588;2023-01-04T08:11:50;1.20;;;0.73;;
26908;SDS011;14477;51.038;4.588;2023-01-04T08:14:15;0.82;;;0.65;;
26908;SDS011;14477;51.038;4.588;2023-01-04T08:16:42;3.20;;;0.90;;
26908;SDS011;14477;51.038;4.588;2023-01-04T08:19:13;2.30;;;0.90;;
26908;SDS011;14477;51.038;4.588;2023-01-04T08:21:40;1.17;;;0.80;;
26908;SDS011;14477;51.038;4.588;2023-01-04T08:24:08;1.17;;;0.80;;
26908;SDS011;14477;51.038;4.588;2023-01-04T08:26:39;1.98;;;0.80;;
26908;SDS011;14477;51.038;4.588;2023-01-04T08:29:05;1.25;;;0.85;;
26908;SDS011;14477;51.038;4.588;2023-01-04T08:31:31;2.50;;;0.90;;
26908;SDS011;14477;51.038;4.588;2023-01-04T08:33:59;1.47;;;0.70;;
26908;SDS011;14477;51.038;4.588;2023-01-04T08:36:28;1.27;;;0.80;;
26908;SDS011;14477;51.038;4.588;2023-01-04T08:39:14;1.30;;;0.80;;
26908;SDS011;14477;51.038;4.588;2023-01-04T08:41:40;1.08;;;0.80;;
26908;SDS011;14477;51.038;4.588;2023-01-04T08:44:16;1.73;;;1.00;;
26908;SDS011;14477;51.038;4.588;2023-01-04T08:46:44;1.40;;;0.80;;
26908;SDS011;14477;51.038;4.588;2023-01-04T08:49:10;1.55;;;0.95;;
26908;SDS011;14477;51.038;4.588;2023-01-04T08:51:35;2.38;;;0.82;;
26908;SDS011;14477;51.038;4.588;2023-01-04T08:54:01;1.53;;;0.80;;
26908;SDS011;14477;51.038;4.588;2023-01-04T08:56:28;1.25;;;0.70;;
26908;SDS011;14477;51.038;4.588;2023-01-04T08:58:54;1.65;;;0.80;;
26908;SDS011;14477;51.038;4.588;2023-01-04T09:01:20;2.72;;;0.80;;
26908;SDS011;14477;51.038;4.588;2023-01-04T09:03:46;1.77;;;0.77;;
26908;SDS011;14477;51.038;4.588;2023-01-04T09:06:13;1.95;;;0.70;;
26908;SDS011;14477;51.038;4.588;2023-01-04T09:08:40;1.77;;;0.85;;
26908;SDS011;14477;51.038;4.588;2023-01-04T09:11:09;1.45;;;0.90;;
26908;SDS011;14477;51.038;4.588;2023-01-04T09:13:37;2.37;;;0.97;;
26908;SDS011;14477;51.038;4.588;2023-01-04T09:16:05;1.75;;;0.85;;
26908;SDS011;14477;51.038;4.588;2023-01-04T09:18:33;2.15;;;0.80;;
26908;SDS011;14477;51.038;4.588;2023-01-04T09:21:03;2.03;;;1.02;;
26908;SDS011;14477;51.038;4.588;2023-01-04T09:23:37;1.42;;;0.80;;
26908;SDS011;14477;51.038;4.588;2023-01-04T09:26:07;2.07;;;0.70;;
26908;SDS011;14477;51.038;4.588;2023-01-04T09:28:35;2.17;;;0.90;;
26908;SDS011;14477;51.038;4.588;2023-01-04T09:31:06;2.50;;;0.98;;
26908;SDS011;14477;51.038;4.588;2023-01-04T09:33:32;1.15;;;0.75;;
26908;SDS011;14477;51.038;4.588;2023-01-04T09:36:00;1.98;;;0.77;;
26908;SDS011;14477;51.038;4.588;2023-01-04T09:38:30;2.50;;;0.80;;
26908;SDS011;14477;51.038;4.588;2023-01-04T09:41:09;3.20;;;0.93;;
26908;SDS011;14477;51.038;4.588;2023-01-04T09:43:53;1.85;;;0.90;;
26908;SDS011;14477;51.038;4.588;2023-01-04T09:49:28;3.20;;;0.90;;
26908;SDS011;14477;51.038;4.588;2023-01-04T09:54:56;1.52;;;0.80;;
26908;SDS011;14477;51.038;4.588;2023-01-04T09:57:39;3.10;;;1.00;;
26908;SDS011;14477;51.038;4.588;2023-01-04T10:00:30;3.83;;;1.08;;
26908;SDS011;14477;51.038;4.588;2023-01-04T10:03:16;1.75;;;0.75;;
26908;SDS011;14477;51.038;4.588;2023-01-04T10:05:47;2.27;;;0.90;;
26908;SDS011;14477;51.038;4.588;2023-01-04T10:08:15;3.28;;;0.80;;
26908;SDS011;14477;51.038;4.588;2023-01-04T10:14:07;2.25;;;0.93;;
26908;SDS011;14477;51.038;4.588;2023-01-04T10:25:19;2.58;;;1.00;;
26908;SDS011;14477;51.038;4.588;2023-01-04T10:33:21;1.00;;;0.50;;
26908;SDS011;14477;51.038;4.588;2023-01-04T10:35:56;1.98;;;0.80;;
26908;SDS011;14477;51.038;4.588;2023-01-04T10:38:24;1.95;;;0.80;;
26908;SDS011;14477;51.038;4.588;2023-01-04T10:40:53;1.67;;;0.80;;
26908;SDS011;14477;51.038;4.588;2023-01-04T10:46:05;3.97;;;0.80;;
26908;SDS011;14477;51.038;4.588;2023-01-04T10:51:14;1.08;;;0.60;;
26908;SDS011;14477;51.038;4.588;2023-01-04T10:53:48;1.55;;;0.90;;
26908;SDS011;14477;51.038;4.588;2023-01-04T10:59:15;1.37;;;0.67;;
26908;SDS011;14477;51.038;4.588;2023-01-04T11:01:49;1.20;;;0.70;;
26908;SDS011;14477;51.038;4.588;2023-01-04T11:09:45;1.33;;;0.60;;
26908;SDS011;14477;51.038;4.588;2023-01-04T11:12:33;1.33;;;0.80;;
26908;SDS011;14477;51.038;4.588;2023-01-04T11:14:59;2.38;;;0.70;;
26908;SDS011;14477;51.038;4.588;2023-01-04T11:17:25;1.73;;;0.70;;
26908;SDS011;14477;51.038;4.588;2023-01-04T11:19:52;1.70;;;0.63;;
26908;SDS011;14477;51.038;4.588;2023-01-04T11:22:35;1.20;;;0.70;;
26908;SDS011;14477;51.038;4.588;2023-01-04T11:25:03;1.38;;;0.63;;
26908;SDS011;14477;51.038;4.588;2023-01-04T11:27:47;2.22;;;0.90;;
26908;SDS011;14477;51.038;4.588;2023-01-04T11:30:26;1.10;;;0.60;;
26908;SDS011;14477;51.038;4.588;2023-01-04T11:40:37;0.90;;;0.60;;
26908;SDS011;14477;51.038;4.588;2023-01-04T11:43:10;0.50;;;0.50;;
26908;SDS011;14477;51.038;4.588;2023-01-04T11:45:51;0.50;;;0.50;;
26908;SDS011;14477;51.038;4.588;2023-01-04T11:48:56;0.60;;;0.60;;
26908;SDS011;14477;51.038;4.588;2023-01-04T11:51:16;1.25;;;0.57;;
26908;SDS011;14477;51.038;4.588;2023-01-04T11:56:22;0.60;;;0.60;;
26908;SDS011;14477;51.038;4.588;2023-01-04T11:59:02;0.77;;;0.60;;
26908;SDS011;14477;51.038;4.588;2023-01-04T12:01:45;0.87;;;0.60;;
26908;SDS011;14477;51.038;4.588;2023-01-04T12:07:04;1.75;;;0.80;;
26908;SDS011;14477;51.038;4.588;2023-01-04T12:09:37;0.80;;;0.70;;
26908;SDS011;14477;51.038;4.588;2023-01-04T12:12:04;1.25;;;0.80;;
26908;SDS011;14477;51.038;4.588;2023-01-04T12:14:31;1.10;;;0.60;;
26908;SDS011;14477;51.038;4.588;2023-01-04T12:19:39;1.10;;;0.70;;
26908;SDS011;14477;51.038;4.588;2023-01-04T12:22:17;1.30;;;0.70;;
26908;SDS011;14477;51.038;4.588;2023-01-04T12:24:47;0.90;;;0.70;;
26908;SDS011;14477;51.038;4.588;2023-01-04T12:27:13;0.70;;;0.70;;
26908;SDS011;14477;51.038;4.588;2023-01-04T12:37:02;1.03;;;0.63;;
26908;SDS011;14477;51.038;4.588;2023-01-04T12:39:43;0.95;;;0.70;;
26908;SDS011;14477;51.038;4.588;2023-01-04T12:54:58;0.97;;;0.60;;
26908;SDS011;14477;51.038;4.588;2023-01-04T12:57:32;1.17;;;0.70;;
26908;SDS011;14477;51.038;4.588;2023-01-04T13:05:31;0.88;;;0.50;;
26908;SDS011;14477;51.038;4.588;2023-01-04T13:08:01;0.50;;;0.50;;
26908;SDS011;14477;51.038;4.588;2023-01-04T13:10:34;0.60;;;0.60;;
26908;SDS011;14477;51.038;4.588;2023-01-04T13:18:35;1.00;;;0.70;;
26908;SDS011;14477;51.038;4.588;2023-01-04T13:23:50;0.70;;;0.50;;
26908;SDS011;14477;51.038;4.588;2023-01-04T13:26:27;0.68;;;0.50;;
26908;SDS011;14477;51.038;4.588;2023-01-04T13:31:45;0.87;;;0.50;;
26908;SDS011;14477;51.038;4.588;2023-01-04T13:39:26;0.88;;;0.60;;
26908;SDS011;14477;51.038;4.588;2023-01-04T13:41:53;0.68;;;0.60;;
26908;SDS011;14477;51.038;4.588;2023-01-04T13:47:20;2.25;;;0.70;;
26908;SDS011;14477;51.038;4.588;2023-01-04T13:49:46;1.20;;;0.70;;
26908;SDS011;14477;51.038;4.588;2023-01-04T13:52:19;0.90;;;0.80;;
26908;SDS011;14477;51.038;4.588;2023-01-04T13:54:46;0.88;;;0.70;;
26908;SDS011;14477;51.038;4.588;2023-01-04T13:57:16;2.20;;;0.77;;
26908;SDS011;14477;51.038;4.588;2023-01-04T13:59:49;3.20;;;1.27;;
26908;SDS011;14477;51.038;4.588;2023-01-04T14:02:16;1.27;;;0.95;;
26908;SDS011;14477;51.038;4.588;2023-01-04T14:04:45;1.20;;;0.80;;
26908;SDS011;14477;51.038;4.588;2023-01-04T14:07:17;1.83;;;0.80;;
26908;SDS011;14477;51.038;4.588;2023-01-04T14:09:46;0.93;;;0.80;;
26908;SDS011;14477;51.038;4.588;2023-01-04T14:12:17;1.42;;;0.95;;
26908;SDS011;14477;51.038;4.588;2023-01-04T14:14:53;1.50;;;0.90;;
26908;SDS011;14477;51.038;4.588;2023-01-04T14:25:34;1.58;;;1.10;;
26908;SDS011;14477;51.038;4.588;2023-01-04T14:30:47;2.10;;;1.00;;
26908;SDS011;14477;51.038;4.588;2023-01-04T14:38:39;1.65;;;1.00;;
26908;SDS011;14477;51.038;4.588;2023-01-04T14:41:17;1.05;;;0.95;;
26908;SDS011;14477;51.038;4.588;2023-01-04T14:44:08;2.50;;;1.10;;
26908;SDS011;14477;51.038;4.588;2023-01-04T14:46:36;2.08;;;1.00;;
26908;SDS011;14477;51.038;4.588;2023-01-04T14:49:03;1.83;;;0.85;;
26908;SDS011;14477;51.038;4.588;2023-01-04T14:51:33;1.10;;;0.90;;
26908;SDS011;14477;51.038;4.588;2023-01-04T14:54:06;2.05;;;1.10;;
26908;SDS011;14477;51.038;4.588;2023-01-04T14:56:34;2.73;;;1.40;;
26908;SDS011;14477;51.038;4.588;2023-01-04T14:59:00;1.33;;;0.90;;
26908;SDS011;14477;51.038;4.588;2023-01-04T15:01:26;1.98;;;1.10;;
26908;SDS011;14477;51.038;4.588;2023-01-04T15:03:52;2.83;;;1.40;;
26908;SDS011;14477;51.038;4.588;2023-01-04T15:06:18;2.30;;;1.10;;
26908;SDS011;14477;51.038;4.588;2023-01-04T15:08:44;2.05;;;1.05;;
26908;SDS011;14477;51.038;4.588;2023-01-04T15:11:11;2.38;;;1.27;;
26908;SDS011;14477;51.038;4.588;2023-01-04T15:13:38;1.98;;;0.95;;
26908;SDS011;14477;51.038;4.588;2023-01-04T15:16:04;1.77;;;1.10;;
26908;SDS011;14477;51.038;4.588;2023-01-04T15:18:30;1.85;;;1.20;;
26908;SDS011;14477;51.038;4.588;2023-01-04T15:20:56;2.70;;;1.15;;
26908;SDS011;14477;51.038;4.588;2023-01-04T15:23:23;1.50;;;0.98;;
26908;SDS011;14477;51.038;4.588;2023-01-04T15:25:48;1.23;;;0.90;;
26908;SDS011;14477;51.038;4.588;2023-01-04T15:28:14;1.70;;;0.80;;
26908;SDS011;14477;51.038;4.588;2023-01-04T15:30:41;1.63;;;0.90;;
26908;SDS011;14477;51.038;4.588;2023-01-04T15:33:08;1.45;;;0.80;;
26908;SDS011;14477;51.038;4.588;2023-01-04T15:35:34;1.88;;;0.60;;
26908;SDS011;14477;51.038;4.588;2023-01-04T15:38:00;2.03;;;0.73;;
26908;SDS011;14477;51.038;4.588;2023-01-04T15:40:26;1.75;;;0.80;;
26908;SDS011;14477;51.038;4.588;2023-01-04T15:42:51;1.60;;;0.70;;
26908;SDS011;14477;51.038;4.588;2023-01-04T15:45:24;2.20;;;0.65;;
26908;SDS011;14477;51.038;4.588;2023-01-04T15:47:51;3.00;;;0.80;;
26908;SDS011;14477;51.038;4.588;2023-01-04T15:50:17;1.83;;;0.80;;
26908;SDS011;14477;51.038;4.588;2023-01-04T15:52:44;3.47;;;0.80;;
26908;SDS011;14477;51.038;4.588;2023-01-04T15:55:11;4.67;;;1.20;;
26908;SDS011;14477;51.038;4.588;2023-01-04T15:57:37;2.80;;;0.80;;
26908;SDS011;14477;51.038;4.588;2023-01-04T16:00:03;2.50;;;0.80;;
26908;SDS011;14477;51.038;4.588;2023-01-04T16:02:30;3.20;;;0.85;;
26908;SDS011;14477;51.038;4.588;2023-01-04T16:04:56;2.57;;;0.90;;
26908;SDS011;14477;51.038;4.588;2023-01-04T16:07:22;3.83;;;0.90;;
26908;SDS011;14477;51.038;4.588;2023-01-04T16:09:49;6.28;;;1.20;;
26908;SDS011;14477;51.038;4.588;2023-01-04T16:12:15;4.40;;;1.10;;
26908;SDS011;14477;51.038;4.588;2023-01-04T16:14:59;5.27;;;1.50;;
26908;SDS011;14477;51.038;4.588;2023-01-04T16:17:25;6.32;;;1.30;;
26908;SDS011;14477;51.038;4.588;2023-01-04T16:19:51;5.45;;;1.08;;
26908;SDS011;14477;51.038;4.588;2023-01-04T16:22:17;6.03;;;1.20;;
26908;SDS011;14477;51.038;4.588;2023-01-04T16:24:43;7.25;;;1.58;;
26908;SDS011;14477;51.038;4.588;2023-01-04T16:27:09;9.10;;;2.03;;
26908;SDS011;14477;51.038;4.588;2023-01-04T16:29:35;6.93;;;1.40;;
26908;SDS011;14477;51.038;4.588;2023-01-04T16:32:01;8.25;;;1.60;;
26908;SDS011;14477;51.038;4.588;2023-01-04T16:34:28;9.35;;;2.10;;
26908;SDS011;14477;51.038;4.588;2023-01-04T16:36:54;9.98;;;1.85;;
26908;SDS011;14477;51.038;4.588;2023-01-04T16:39:19;11.80;;;1.90;;
26908;SDS011;14477;51.038;4.588;2023-01-04T16:41:45;8.85;;;1.77;;
26908;SDS011;14477;51.038;4.588;2023-01-04T16:44:12;11.10;;;1.88;;
26908;SDS011;14477;51.038;4.588;2023-01-04T16:46:38;7.70;;;1.50;;
26908;SDS011;14477;51.038;4.588;2023-01-04T16:49:05;11.77;;;1.83;;
26908;SDS011;14477;51.038;4.588;2023-01-04T16:51:34;10.65;;;2.17;;
26908;SDS011;14477;51.038;4.588;2023-01-04T16:54:02;7.05;;;2.00;;
26908;SDS011;14477;51.038;4.588;2023-01-04T16:56:29;8.52;;;1.80;;
26908;SDS011;14477;51.038;4.588;2023-01-04T16:58:56;10.40;;;1.90;;
26908;SDS011;14477;51.038;4.588;2023-01-04T17:01:22;12.25;;;1.80;;
26908;SDS011;14477;51.038;4.588;2023-01-04T17:03:52;11.23;;;1.85;;
26908;SDS011;14477;51.038;4.588;2023-01-04T17:06:21;10.20;;;1.70;;
26908;SDS011;14477;51.038;4.588;2023-01-04T17:08:49;12.60;;;2.10;;
26908;SDS011;14477;51.038;4.588;2023-01-04T17:11:26;11.07;;;2.05;;
26908;SDS011;14477;51.038;4.588;2023-01-04T17:13:53;9.00;;;2.00;;
26908;SDS011;14477;51.038;4.588;2023-01-04T17:16:19;11.68;;;2.17;;
26908;SDS011;14477;51.038;4.588;2023-01-04T17:18:46;10.68;;;2.13;;
26908;SDS011;14477;51.038;4.588;2023-01-04T17:21:13;11.07;;;2.00;;
26908;SDS011;14477;51.038;4.588;2023-01-04T17:23:43;12.82;;;2.42;;
26908;SDS011;14477;51.038;4.588;2023-01-04T17:26:13;12.95;;;2.00;;
26908;SDS011;14477;51.038;4.588;2023-01-04T17:28:45;9.48;;;1.83;;
26908;SDS011;14477;51.038;4.588;2023-01-04T17:31:16;10.15;;;1.85;;
26908;SDS011;14477;51.038;4.588;2023-01-04T17:33:47;9.43;;;1.70;;